Time;durP1;ratioP1;P1;durP2;ratioP2;P2;SDS_P1;SDS_P2;PMS_P1;PMS_P2;Temp;Humidity;BMP_temperature;BMP_pressure;BME280_temperature;BME280_humidity;BME280_pressure;Samples;Min_cycle;Max_cycle;Signal;HPM_P1;HPM_P2
2022/03/22 00:00:55;;;;;;;14.35;6.25;;;;;;;;;;5074659;28;20017;-61
2022/03/22 00:03:24;;;;;;;14.48;6.28;;;;;;;;;;5072749;28;20024;-61
2022/03/22 00:05:51;;;;;;;16.38;6.20;;;;;;;;;;5074375;28;20013;-61
2022/03/22 00:08:18;;;;;;;11.85;6.38;;;;;;;;;;5073992;28;20496;-61
2022/03/22 00:10:44;;;;;;;14.38;6.35;;;;;;;;;;5073938;28;20442;-61
2022/03/22 00:13:10;;;;;;;17.17;6.40;;;;;;;;;;5073966;28;20105;-61
2022/03/22 00:15:36;;;;;;;15.15;6.22;;;;;;;;;;5072959;28;20042;-61
2022/03/22 00:18:02;;;;;;;11.05;5.80;;;;;;;;;;5074286;28;20060;-61
2022/03/22 00:20:28;;;;;;;10.82;6.18;;;;;;;;;;5073956;28;20028;-61
2022/03/22 00:22:56;;;;;;;13.27;7.28;;;;;;;;;;5073978;28;20039;-61
2022/03/22 00:25:22;;;;;;;14.82;6.82;;;;;;;;;;5073537;28;20484;-61
2022/03/22 00:27:55;;;;;;;15.38;6.68;;;;;;;;;;5074020;28;20120;-61
2022/03/22 00:30:22;;;;;;;14.70;6.43;;;;;;;;;;5068540;28;20029;-61
2022/03/22 00:32:50;;;;;;;13.70;6.88;;;;;;;;;;5065495;28;20095;-61
2022/03/22 00:35:18;;;;;;;11.93;6.75;;;;;;;;;;5073975;28;20024;-61
2022/03/22 00:37:46;;;;;;;12.63;6.75;;;;;;;;;;5071261;28;20590;-61
2022/03/22 00:40:18;;;;;;;16.55;6.55;;;;;;;;;;5073335;28;20137;-61
2022/03/22 00:42:46;;;;;;;15.05;8.63;;;;;;;;;;5073408;28;20412;-61
2022/03/22 00:45:13;;;;;;;15.05;6.30;;;;;;;;;;5073840;28;20040;-61
2022/03/22 00:47:40;;;;;;;15.43;6.35;;;;;;;;;;5073730;28;20377;-61
2022/03/22 00:50:07;;;;;;;15.85;6.63;;;;;;;;;;5073682;28;20044;-61
2022/03/22 00:52:35;;;;;;;16.60;6.80;;;;;;;;;;5072949;28;20392;-61
2022/03/22 00:55:01;;;;;;;12.60;5.90;;;;;;;;;;5073275;28;20162;-61
2022/03/22 00:57:27;;;;;;;17.17;7.30;;;;;;;;;;5073348;28;20027;-61
2022/03/22 01:00:04;;;;;;;15.63;6.90;;;;;;;;;;5073473;28;20028;-61
2022/03/22 01:02:32;;;;;;;13.68;6.18;;;;;;;;;;5073031;28;20032;-61
2022/03/22 01:04:58;;;;;;;12.30;6.85;;;;;;;;;;5073391;28;20016;-61
2022/03/22 01:07:24;;;;;;;13.63;6.60;;;;;;;;;;5072758;28;20029;-61
2022/03/22 01:09:50;;;;;;;15.55;6.68;;;;;;;;;;5072872;28;20028;-61
2022/03/22 01:12:17;;;;;;;13.55;6.15;;;;;;;;;;5079481;28;20420;-61
2022/03/22 01:14:43;;;;;;;13.20;5.88;;;;;;;;;;5073817;28;20067;-61
2022/03/22 01:17:09;;;;;;;12.68;6.88;;;;;;;;;;5073152;28;20025;-61
2022/03/22 01:19:37;;;;;;;13.45;6.80;;;;;;;;;;5072569;28;20032;-61
2022/03/22 01:22:03;;;;;;;11.10;5.88;;;;;;;;;;5073010;28;20079;-61
2022/03/22 01:24:29;;;;;;;13.88;6.78;;;;;;;;;;5072406;28;20107;-61
2022/03/22 01:26:55;;;;;;;9.60;5.70;;;;;;;;;;5072343;28;20115;-61
2022/03/22 01:29:21;;;;;;;10.88;6.35;;;;;;;;;;5072658;28;20112;-61
2022/03/22 01:31:49;;;;;;;12.38;6.50;;;;;;;;;;5072686;28;20060;-61
2022/03/22 01:34:15;;;;;;;16.25;6.10;;;;;;;;;;5072379;28;20485;-61
2022/03/22 01:36:42;;;;;;;11.20;5.45;;;;;;;;;;5072313;28;20063;-61
2022/03/22 01:39:08;;;;;;;10.98;5.85;;;;;;;;;;5072436;28;20045;-61
2022/03/22 01:41:34;;;;;;;11.35;5.28;;;;;;;;;;5072327;28;20016;-61
2022/03/22 01:44:01;;;;;;;9.10;5.32;;;;;;;;;;5072571;28;20381;-61
2022/03/22 01:46:27;;;;;;;10.57;5.25;;;;;;;;;;5072311;28;20111;-61
2022/03/22 01:48:54;;;;;;;13.50;5.43;;;;;;;;;;5072129;28;20037;-61
2022/03/22 01:51:23;;;;;;;12.48;5.05;;;;;;;;;;5072410;28;20551;-61
2022/03/22 01:53:50;;;;;;;12.52;5.28;;;;;;;;;;5071769;28;20028;-61
2022/03/22 01:56:16;;;;;;;13.25;5.47;;;;;;;;;;5072338;28;20028;-61
2022/03/22 01:58:42;;;;;;;14.27;6.32;;;;;;;;;;5071952;28;20129;-61
2022/03/22 02:06:40;;;;;;;8.88;5.47;;;;;;;;;;5071667;28;20029;-61
2022/03/22 02:09:06;;;;;;;9.10;6.13;;;;;;;;;;5071816;28;20050;-61
2022/03/22 02:11:32;;;;;;;10.52;5.15;;;;;;;;;;5071628;28;20029;-61
2022/03/22 02:13:58;;;;;;;11.07;5.25;;;;;;;;;;5070695;28;20080;-61
2022/03/22 02:16:24;;;;;;;12.90;6.03;;;;;;;;;;5071812;28;20025;-61
2022/03/22 02:18:54;;;;;;;10.48;5.90;;;;;;;;;;5071418;28;20036;-61
2022/03/22 02:21:21;;;;;;;15.35;5.93;;;;;;;;;;5071795;28;20028;-61
2022/03/22 02:23:51;;;;;;;11.73;6.03;;;;;;;;;;5071535;28;20024;-61
2022/03/22 02:26:21;;;;;;;11.30;5.57;;;;;;;;;;5072203;28;20028;-61
2022/03/22 02:28:47;;;;;;;13.07;6.40;;;;;;;;;;5071496;28;20023;-61
2022/03/22 02:31:13;;;;;;;15.70;6.78;;;;;;;;;;5071847;28;20514;-61
2022/03/22 02:33:43;;;;;;;11.65;5.68;;;;;;;;;;5070649;28;20059;-61
2022/03/22 02:36:09;;;;;;;8.27;5.55;;;;;;;;;;5071497;28;20025;-61
2022/03/22 02:38:35;;;;;;;12.27;5.88;;;;;;;;;;5070466;28;20021;-61
2022/03/22 02:41:02;;;;;;;8.68;5.82;;;;;;;;;;5071451;28;20017;-61
2022/03/22 02:43:28;;;;;;;10.57;6.10;;;;;;;;;;5071822;28;20500;-61
2022/03/22 02:45:54;;;;;;;9.93;5.60;;;;;;;;;;5071353;28;20029;-61
2022/03/22 02:48:20;;;;;;;12.85;6.38;;;;;;;;;;5071936;28;20077;-61
2022/03/22 02:50:46;;;;;;;11.20;5.97;;;;;;;;;;5071083;28;20081;-61
2022/03/22 02:53:12;;;;;;;11.43;6.30;;;;;;;;;;5071743;28;20170;-61
2022/03/22 02:55:39;;;;;;;14.23;5.90;;;;;;;;;;5071588;28;20085;-61
2022/03/22 02:58:05;;;;;;;11.35;5.70;;;;;;;;;;5071261;28;20029;-61
2022/03/22 03:00:31;;;;;;;10.70;5.97;;;;;;;;;;5071661;28;20028;-61
2022/03/22 03:02:57;;;;;;;10.73;5.72;;;;;;;;;;5071491;28;20039;-61
2022/03/22 03:05:24;;;;;;;11.35;5.68;;;;;;;;;;5069855;28;20404;-61
2022/03/22 03:07:51;;;;;;;10.52;5.90;;;;;;;;;;5071209;28;20488;-61
2022/03/22 03:10:17;;;;;;;14.07;6.25;;;;;;;;;;5071494;28;20028;-61
2022/03/22 03:12:43;;;;;;;13.38;6.22;;;;;;;;;;5071306;28;20052;-61
2022/03/22 03:15:10;;;;;;;13.10;7.25;;;;;;;;;;5064495;28;20095;-61
2022/03/22 03:17:37;;;;;;;11.65;6.03;;;;;;;;;;5067425;28;20398;-61
2022/03/22 03:20:04;;;;;;;10.95;6.68;;;;;;;;;;5070229;28;20504;-61
2022/03/22 03:22:30;;;;;;;12.95;6.05;;;;;;;;;;5071441;28;20400;-61
2022/03/22 03:24:56;;;;;;;11.18;6.65;;;;;;;;;;5071014;28;20101;-61
2022/03/22 03:27:22;;;;;;;13.02;6.00;;;;;;;;;;5071312;28;20075;-61
2022/03/22 03:29:48;;;;;;;11.55;6.63;;;;;;;;;;5070802;28;20116;-61
2022/03/22 03:32:15;;;;;;;10.82;6.53;;;;;;;;;;5071203;28;20032;-61
2022/03/22 03:34:41;;;;;;;10.20;6.85;;;;;;;;;;5070726;28;20075;-61
2022/03/22 03:37:07;;;;;;;13.00;6.63;;;;;;;;;;5066304;28;20449;-61
2022/03/22 03:39:34;;;;;;;12.60;6.85;;;;;;;;;;5064819;28;20454;-61
2022/03/22 03:42:01;;;;;;;15.10;6.80;;;;;;;;;;5069384;28;20071;-61
2022/03/22 03:47:17;;;;;;;13.73;6.78;;;;;;;;;;5071096;28;20356;-61
2022/03/22 03:49:50;;;;;;;10.57;6.50;;;;;;;;;;5070730;28;20040;-61
2022/03/22 03:52:23;;;;;;;13.43;8.18;;;;;;;;;;5071071;28;20123;-61
2022/03/22 03:54:50;;;;;;;11.93;7.72;;;;;;;;;;5073012;28;20052;-64
2022/03/22 03:57:17;;;;;;;15.57;9.02;;;;;;;;;;5068395;28;20024;-64
2022/03/22 03:59:43;;;;;;;14.43;8.95;;;;;;;;;;5070112;28;20025;-64
2022/03/22 04:02:10;;;;;;;17.85;8.95;;;;;;;;;;5068062;28;20020;-64
2022/03/22 04:04:37;;;;;;;13.98;8.20;;;;;;;;;;5069138;28;20040;-64
2022/03/22 04:07:04;;;;;;;17.70;8.90;;;;;;;;;;5072238;28;20456;-64
2022/03/22 04:09:30;;;;;;;15.90;8.52;;;;;;;;;;5072893;28;20036;-64
2022/03/22 04:11:56;;;;;;;14.57;7.57;;;;;;;;;;5072755;28;20032;-64
2022/03/22 04:14:23;;;;;;;19.67;8.98;;;;;;;;;;5072741;28;20041;-62
2022/03/22 04:16:50;;;;;;;15.02;9.30;;;;;;;;;;5072985;28;20025;-61
2022/03/22 04:19:16;;;;;;;17.38;8.80;;;;;;;;;;5072119;28;20020;-61
2022/03/22 04:21:42;;;;;;;15.48;8.45;;;;;;;;;;5072398;28;20017;-61
2022/03/22 04:24:09;;;;;;;15.00;8.32;;;;;;;;;;5073159;28;20040;-61
2022/03/22 04:26:40;;;;;;;16.98;9.45;;;;;;;;;;5067728;28;20086;-61
2022/03/22 04:34:42;;;;;;;13.10;8.60;;;;;;;;;;5071200;28;20045;-61
2022/03/22 04:37:12;;;;;;;14.18;8.25;;;;;;;;;;5071515;28;20074;-61
2022/03/22 04:39:39;;;;;;;14.35;8.27;;;;;;;;;;5068477;28;20405;-61
2022/03/22 04:42:05;;;;;;;16.10;8.75;;;;;;;;;;5071033;28;20061;-61
2022/03/22 04:44:32;;;;;;;12.23;8.52;;;;;;;;;;5071172;28;20123;-61
2022/03/22 04:46:58;;;;;;;17.30;8.85;;;;;;;;;;5071195;28;20032;-61
2022/03/22 04:49:25;;;;;;;17.08;9.40;;;;;;;;;;5071640;28;20040;-62
2022/03/22 04:57:20;;;;;;;14.05;8.82;;;;;;;;;;5071117;28;20497;-73
2022/03/22 04:59:48;;;;;;;24.40;9.20;;;;;;;;;;5062542;28;20090;-61
2022/03/22 05:02:15;;;;;;;14.95;9.25;;;;;;;;;;5066875;28;20021;-61
2022/03/22 05:04:41;;;;;;;17.73;8.70;;;;;;;;;;5068776;28;20132;-61
2022/03/22 05:07:08;;;;;;;17.23;9.43;;;;;;;;;;5070267;28;20123;-61
2022/03/22 05:09:34;;;;;;;17.85;8.65;;;;;;;;;;5069584;28;20032;-61
2022/03/22 05:12:02;;;;;;;17.05;8.40;;;;;;;;;;5072343;28;20059;-61
2022/03/22 05:14:29;;;;;;;17.63;9.50;;;;;;;;;;5072486;28;20037;-61
2022/03/22 05:16:58;;;;;;;19.23;9.05;;;;;;;;;;5073154;28;20392;-61
2022/03/22 05:19:27;;;;;;;16.40;9.50;;;;;;;;;;5073064;28;20032;-61
2022/03/22 05:21:53;;;;;;;18.63;9.30;;;;;;;;;;5073188;28;20090;-61
2022/03/22 05:24:20;;;;;;;15.80;9.05;;;;;;;;;;5072666;28;20030;-61
2022/03/22 05:26:46;;;;;;;19.85;11.15;;;;;;;;;;5073164;28;20055;-62
2022/03/22 05:29:13;;;;;;;16.55;9.35;;;;;;;;;;5072871;28;20082;-61
2022/03/22 05:31:40;;;;;;;17.15;10.57;;;;;;;;;;5071809;28;20432;-61
2022/03/22 05:34:06;;;;;;;20.15;9.27;;;;;;;;;;5073047;28;20024;-61
2022/03/22 05:36:32;;;;;;;19.85;10.05;;;;;;;;;;5072184;28;20024;-61
2022/03/22 05:38:58;;;;;;;19.02;9.68;;;;;;;;;;5072731;28;20028;-61
2022/03/22 05:41:25;;;;;;;20.98;9.52;;;;;;;;;;5072458;28;20020;-61
2022/03/22 05:43:52;;;;;;;17.95;9.13;;;;;;;;;;5068378;28;20471;-62
2022/03/22 05:46:18;;;;;;;20.83;10.45;;;;;;;;;;5069363;28;20718;-62
2022/03/22 05:48:48;;;;;;;19.35;10.13;;;;;;;;;;5067045;28;20396;-62
2022/03/22 05:51:16;;;;;;;20.52;9.65;;;;;;;;;;5071431;28;20039;-62
2022/03/22 05:53:43;;;;;;;17.10;9.35;;;;;;;;;;5071070;28;20033;-62
2022/03/22 05:56:10;;;;;;;23.33;9.60;;;;;;;;;;5069040;28;20041;-62
2022/03/22 05:58:36;;;;;;;22.58;10.55;;;;;;;;;;5064345;28;20017;-62
2022/03/22 06:01:02;;;;;;;18.83;9.65;;;;;;;;;;5065847;28;20056;-62
2022/03/22 06:03:28;;;;;;;20.58;9.27;;;;;;;;;;5064595;28;20400;-62
2022/03/22 06:05:54;;;;;;;20.10;9.73;;;;;;;;;;5069728;28;20109;-62
2022/03/22 06:08:21;;;;;;;19.58;9.68;;;;;;;;;;5063801;28;20070;-62
2022/03/22 06:10:47;;;;;;;19.48;10.25;;;;;;;;;;5067256;28;20032;-62
2022/03/22 06:13:13;;;;;;;16.52;10.27;;;;;;;;;;5068862;28;20044;-63
2022/03/22 06:15:40;;;;;;;22.20;11.73;;;;;;;;;;5070006;28;20131;-62
2022/03/22 06:18:09;;;;;;;19.25;10.20;;;;;;;;;;5070147;28;20030;-62
2022/03/22 06:20:36;;;;;;;16.77;9.90;;;;;;;;;;5068775;28;20090;-62
2022/03/22 06:23:05;;;;;;;19.52;11.80;;;;;;;;;;5070125;28;20051;-62
2022/03/22 06:25:32;;;;;;;31.38;16.85;;;;;;;;;;5064216;28;20401;-62
2022/03/22 06:27:58;;;;;;;33.63;17.65;;;;;;;;;;5065916;28;20527;-62
2022/03/22 06:30:26;;;;;;;23.25;14.18;;;;;;;;;;5068313;28;20028;-62
2022/03/22 06:32:54;;;;;;;23.35;13.15;;;;;;;;;;5067381;28;20488;-62
2022/03/22 06:35:31;;;;;;;26.50;15.07;;;;;;;;;;5051422;28;20025;-62
2022/03/22 06:37:59;;;;;;;19.58;12.05;;;;;;;;;;5066618;28;20107;-62
2022/03/22 06:40:29;;;;;;;20.15;11.27;;;;;;;;;;5065251;28;20025;-62
2022/03/22 06:42:56;;;;;;;25.50;13.35;;;;;;;;;;5064511;28;20033;-62
2022/03/22 06:45:23;;;;;;;22.58;12.30;;;;;;;;;;5055973;28;20029;-63
2022/03/22 06:47:49;;;;;;;25.50;12.77;;;;;;;;;;5066830;28;20111;-63
2022/03/22 06:50:16;;;;;;;26.17;13.75;;;;;;;;;;5073387;28;20127;-63
2022/03/22 06:52:43;;;;;;;24.38;14.20;;;;;;;;;;5084151;28;20030;-63
2022/03/22 06:55:10;;;;;;;25.23;12.95;;;;;;;;;;5072378;28;20031;-63
2022/03/22 06:57:36;;;;;;;29.55;14.10;;;;;;;;;;5081663;28;20110;-63
2022/03/22 07:00:10;;;;;;;30.33;15.77;;;;;;;;;;5076668;28;20063;-63
2022/03/22 07:02:38;;;;;;;32.15;15.95;;;;;;;;;;5082538;28;20012;-63
2022/03/22 07:05:08;;;;;;;28.50;12.82;;;;;;;;;;5085393;28;20036;-63
2022/03/22 07:07:39;;;;;;;20.60;10.93;;;;;;;;;;5078138;28;20111;-63
2022/03/22 07:10:05;;;;;;;24.17;11.52;;;;;;;;;;5084020;28;20021;-63
2022/03/22 07:12:32;;;;;;;23.80;12.45;;;;;;;;;;5081540;28;20044;-63
2022/03/22 07:14:59;;;;;;;23.55;10.65;;;;;;;;;;5077187;28;20484;-62
2022/03/22 07:17:25;;;;;;;24.90;11.10;;;;;;;;;;5067369;28;20044;-62
2022/03/22 07:19:53;;;;;;;19.52;10.85;;;;;;;;;;5065936;28;20452;-62
2022/03/22 07:22:19;;;;;;;19.70;11.52;;;;;;;;;;5069450;28;20013;-62
2022/03/22 07:24:45;;;;;;;18.58;11.13;;;;;;;;;;5072327;28;20032;-70
2022/03/22 07:27:11;;;;;;;19.00;11.48;;;;;;;;;;5071697;28;20119;-63
2022/03/22 07:29:38;;;;;;;23.05;11.60;;;;;;;;;;5070180;28;20477;-62
2022/03/22 07:32:04;;;;;;;19.40;10.73;;;;;;;;;;5070405;28;20028;-62
2022/03/22 07:34:31;;;;;;;28.75;10.02;;;;;;;;;;5068004;28;20115;-63
2022/03/22 07:36:57;;;;;;;22.10;10.27;;;;;;;;;;5068378;28;20115;-63
2022/03/22 07:39:24;;;;;;;21.45;10.45;;;;;;;;;;5070561;28;20032;-63
2022/03/22 07:41:51;;;;;;;17.95;10.50;;;;;;;;;;5065819;28;20020;-63
2022/03/22 07:44:17;;;;;;;21.77;11.40;;;;;;;;;;5069090;28;20024;-63
2022/03/22 07:46:44;;;;;;;23.60;11.45;;;;;;;;;;5068204;28;20032;-63
2022/03/22 07:54:40;;;;;;;18.80;9.05;;;;;;;;;;5068997;28;20032;-63
2022/03/22 07:57:07;;;;;;;24.48;10.05;;;;;;;;;;5071611;28;20095;-63
2022/03/22 07:59:33;;;;;;;19.95;10.15;;;;;;;;;;5069924;28;20029;-63
2022/03/22 08:02:00;;;;;;;20.90;9.95;;;;;;;;;;5070339;28;20028;-63
2022/03/22 08:04:26;;;;;;;26.08;9.45;;;;;;;;;;5069943;28;20087;-63
2022/03/22 08:06:53;;;;;;;19.38;10.13;;;;;;;;;;5072888;28;20404;-63
2022/03/22 08:09:19;;;;;;;17.73;10.40;;;;;;;;;;5071429;28;20043;-63
2022/03/22 08:11:45;;;;;;;20.55;10.45;;;;;;;;;;5072026;28;20032;-63
2022/03/22 08:14:12;;;;;;;26.30;10.68;;;;;;;;;;5071917;28;20052;-63
2022/03/22 08:16:40;;;;;;;23.98;10.55;;;;;;;;;;5071752;28;20452;-63
2022/03/22 08:19:07;;;;;;;15.52;9.05;;;;;;;;;;5069231;28;20087;-63
2022/03/22 08:21:33;;;;;;;18.02;9.23;;;;;;;;;;5072952;28;20028;-63
2022/03/22 08:23:59;;;;;;;18.77;10.05;;;;;;;;;;5069707;28;20033;-63
2022/03/22 08:26:26;;;;;;;18.58;9.20;;;;;;;;;;5069848;28;20023;-62
2022/03/22 08:28:52;;;;;;;21.08;9.63;;;;;;;;;;5065266;28;20029;-62
2022/03/22 08:31:18;;;;;;;19.10;9.30;;;;;;;;;;5068476;28;20032;-62
2022/03/22 08:33:44;;;;;;;21.08;9.48;;;;;;;;;;5071382;28;20506;-62
2022/03/22 08:36:10;;;;;;;16.73;9.13;;;;;;;;;;5067668;28;20362;-61
2022/03/22 08:38:36;;;;;;;20.25;9.18;;;;;;;;;;5070843;28;20024;-61
2022/03/22 08:41:03;;;;;;;20.13;8.80;;;;;;;;;;5069487;28;20365;-62
2022/03/22 08:43:30;;;;;;;20.83;9.77;;;;;;;;;;5065938;28;20029;-61
2022/03/22 08:45:56;;;;;;;19.60;9.38;;;;;;;;;;5071958;28;20021;-61
2022/03/22 08:48:23;;;;;;;17.20;8.63;;;;;;;;;;5069338;28;20036;-61
2022/03/22 08:50:50;;;;;;;19.27;8.90;;;;;;;;;;5066188;28;20024;-62
2022/03/22 08:53:17;;;;;;;15.43;7.97;;;;;;;;;;5070215;28;20032;-61
2022/03/22 08:55:44;;;;;;;15.82;8.55;;;;;;;;;;5063296;28;20036;-62
2022/03/22 08:58:10;;;;;;;15.80;8.57;;;;;;;;;;5065103;28;20433;-62
2022/03/22 09:00:37;;;;;;;16.58;8.70;;;;;;;;;;5067697;28;20090;-62
2022/03/22 09:03:04;;;;;;;14.85;8.55;;;;;;;;;;5071406;28;20033;-61
2022/03/22 09:08:15;;;;;;;18.60;8.35;;;;;;;;;;5069174;28;20043;-62
2022/03/22 09:10:41;;;;;;;15.43;8.55;;;;;;;;;;5072289;28;20023;-62
2022/03/22 09:13:08;;;;;;;16.27;8.20;;;;;;;;;;5071889;28;20055;-62
2022/03/22 09:15:39;;;;;;;19.10;8.13;;;;;;;;;;5066920;28;20028;-62
2022/03/22 09:18:14;;;;;;;16.55;10.13;;;;;;;;;;5070588;28;20025;-62
2022/03/22 09:20:40;;;;;;;15.40;8.60;;;;;;;;;;5070923;28;20028;-61
2022/03/22 09:23:08;;;;;;;18.58;8.40;;;;;;;;;;5067076;28;20060;-62
2022/03/22 09:25:35;;;;;;;21.65;8.02;;;;;;;;;;5066491;28;20040;-61
2022/03/22 09:28:01;;;;;;;19.50;8.85;;;;;;;;;;5072094;28;20024;-62
2022/03/22 09:30:27;;;;;;;16.17;9.27;;;;;;;;;;5067611;28;20441;-61
2022/03/22 09:32:56;;;;;;;16.00;8.75;;;;;;;;;;5071632;28;20032;-62
2022/03/22 09:35:23;;;;;;;17.13;9.75;;;;;;;;;;5072994;28;20028;-62
2022/03/22 09:37:50;;;;;;;20.15;9.27;;;;;;;;;;5069399;28;20029;-61
2022/03/22 09:40:18;;;;;;;16.48;8.07;;;;;;;;;;5068014;28;20061;-61
2022/03/22 09:42:45;;;;;;;14.48;8.90;;;;;;;;;;5070701;28;20033;-62
2022/03/22 09:45:14;;;;;;;21.90;8.20;;;;;;;;;;5065061;28;20476;-62
2022/03/22 09:47:42;;;;;;;18.20;8.23;;;;;;;;;;5070384;28;20044;-62
2022/03/22 09:50:08;;;;;;;18.08;8.45;;;;;;;;;;5070184;28;20016;-62
2022/03/22 09:52:38;;;;;;;14.57;8.32;;;;;;;;;;5070099;28;20038;-62
2022/03/22 09:55:05;;;;;;;16.00;8.13;;;;;;;;;;5069692;28;20039;-61
2022/03/22 09:57:31;;;;;;;16.67;8.00;;;;;;;;;;5065595;28;20039;-62
2022/03/22 09:59:57;;;;;;;16.05;7.75;;;;;;;;;;5068551;28;20413;-62
2022/03/22 10:02:27;;;;;;;14.65;7.47;;;;;;;;;;5065839;28;20033;-61
2022/03/22 10:04:54;;;;;;;19.40;8.02;;;;;;;;;;5070561;28;20031;-61
2022/03/22 10:07:21;;;;;;;14.98;7.68;;;;;;;;;;5067809;28;20412;-61
2022/03/22 10:10:13;;;;;;;20.27;10.13;;;;;;;;;;5070892;28;20036;-61
2022/03/22 10:12:40;;;;;;;14.60;8.40;;;;;;;;;;5066879;28;20075;-61
2022/03/22 10:15:08;;;;;;;15.60;8.55;;;;;;;;;;5069937;28;20029;-61
2022/03/22 10:17:36;;;;;;;21.23;7.90;;;;;;;;;;5064695;28;20103;-61
2022/03/22 10:20:05;;;;;;;13.55;7.75;;;;;;;;;;5069909;28;20468;-61
2022/03/22 10:22:31;;;;;;;16.13;7.70;;;;;;;;;;5068092;28;20524;-61
2022/03/22 10:24:58;;;;;;;15.13;6.95;;;;;;;;;;5070602;28;20036;-61
2022/03/22 10:27:28;;;;;;;15.43;7.57;;;;;;;;;;5064247;28;20032;-61
2022/03/22 10:29:56;;;;;;;20.77;8.80;;;;;;;;;;5062385;28;20044;-61
2022/03/22 10:32:32;;;;;;;12.77;7.78;;;;;;;;;;5069182;28;20064;-61
2022/03/22 10:35:09;;;;;;;18.48;7.60;;;;;;;;;;5068255;28;20477;-61
2022/03/22 10:37:36;;;;;;;14.90;7.68;;;;;;;;;;5066377;28;20037;-61
2022/03/22 10:40:03;;;;;;;17.20;7.47;;;;;;;;;;5071564;28;20051;-61
2022/03/22 10:42:32;;;;;;;13.43;7.72;;;;;;;;;;5066679;28;20086;-62
2022/03/22 10:44:59;;;;;;;15.57;7.55;;;;;;;;;;5055785;28;20429;-61
2022/03/22 10:47:28;;;;;;;13.32;8.23;;;;;;;;;;5068248;28;20038;-62
2022/03/22 10:50:01;;;;;;;16.52;7.82;;;;;;;;;;5070122;28;20435;-62
2022/03/22 10:52:29;;;;;;;13.25;7.05;;;;;;;;;;5070110;28;20025;-61
2022/03/22 10:54:55;;;;;;;12.75;6.63;;;;;;;;;;5068400;28;20043;-61
2022/03/22 10:57:29;;;;;;;16.30;7.45;;;;;;;;;;5071036;28;20020;-61
2022/03/22 10:59:55;;;;;;;20.25;7.97;;;;;;;;;;5071241;28;20031;-61
2022/03/22 11:02:23;;;;;;;17.92;7.72;;;;;;;;;;5070287;28;20028;-61
2022/03/22 11:04:50;;;;;;;17.90;7.53;;;;;;;;;;5072619;28;20115;-61
2022/03/22 11:07:17;;;;;;;13.05;6.60;;;;;;;;;;5074027;28;20028;-61
2022/03/22 11:09:43;;;;;;;17.58;7.10;;;;;;;;;;5071456;28;20032;-61
2022/03/22 11:12:10;;;;;;;13.68;7.10;;;;;;;;;;5074087;28;20025;-61
2022/03/22 11:14:37;;;;;;;15.90;7.22;;;;;;;;;;5067608;28;20063;-61
2022/03/22 11:17:03;;;;;;;15.02;6.55;;;;;;;;;;5074493;28;20016;-61
2022/03/22 11:19:30;;;;;;;13.77;6.55;;;;;;;;;;5073143;28;20072;-62
2022/03/22 11:22:04;;;;;;;14.55;7.25;;;;;;;;;;5072469;28;20024;-61
2022/03/22 11:24:30;;;;;;;16.88;6.45;;;;;;;;;;5073133;28;20029;-61
2022/03/22 11:26:56;;;;;;;15.73;6.82;;;;;;;;;;5072400;28;20464;-61
2022/03/22 11:29:27;;;;;;;11.13;6.30;;;;;;;;;;5070964;28;20033;-62
2022/03/22 11:34:38;;;;;;;14.68;6.53;;;;;;;;;;5071473;28;20039;-61
2022/03/22 11:37:04;;;;;;;14.52;6.63;;;;;;;;;;5070190;28;20475;-61
2022/03/22 11:42:16;;;;;;;13.18;7.25;;;;;;;;;;5069793;28;20021;-61
2022/03/22 11:44:42;;;;;;;17.40;6.35;;;;;;;;;;5074734;28;20487;-62
2022/03/22 11:47:08;;;;;;;17.45;6.57;;;;;;;;;;5076758;28;20034;-62
2022/03/22 11:49:53;;;;;;;17.05;6.65;;;;;;;;;;5076543;28;20033;-61
2022/03/22 11:52:23;;;;;;;16.13;6.55;;;;;;;;;;5080427;28;20158;-61
2022/03/22 11:54:54;;;;;;;12.70;6.63;;;;;;;;;;5073538;28;20388;-61
2022/03/22 11:57:20;;;;;;;16.25;6.38;;;;;;;;;;5078860;28;20120;-61
2022/03/22 11:59:47;;;;;;;9.88;6.20;;;;;;;;;;5078766;28;20028;-61
2022/03/22 12:02:17;;;;;;;15.10;6.80;;;;;;;;;;5082641;28;20028;-61
2022/03/22 12:04:51;;;;;;;16.58;7.07;;;;;;;;;;5072056;28;20048;-61
2022/03/22 12:07:37;;;;;;;10.65;6.63;;;;;;;;;;5072821;28;20061;-61
2022/03/22 12:10:05;;;;;;;18.35;7.13;;;;;;;;;;5072067;28;20041;-61
2022/03/22 12:12:32;;;;;;;14.55;7.55;;;;;;;;;;5070219;28;20033;-61
2022/03/22 12:15:00;;;;;;;12.95;6.63;;;;;;;;;;5079733;28;20031;-62
2022/03/22 12:17:26;;;;;;;18.95;7.18;;;;;;;;;;5075618;28;20039;-61
2022/03/22 12:19:52;;;;;;;14.77;7.47;;;;;;;;;;5084504;28;20020;-61
2022/03/22 12:22:22;;;;;;;12.23;6.45;;;;;;;;;;5074196;28;20046;-61
2022/03/22 12:24:49;;;;;;;14.82;6.70;;;;;;;;;;5070908;28;20412;-62
2022/03/22 12:27:16;;;;;;;14.73;6.45;;;;;;;;;;5072560;28;20028;-61
2022/03/22 12:29:43;;;;;;;15.73;5.93;;;;;;;;;;5072705;28;20033;-61
2022/03/22 12:32:14;;;;;;;19.60;7.22;;;;;;;;;;5072572;28;20037;-61
2022/03/22 12:34:41;;;;;;;8.63;5.35;;;;;;;;;;5071287;28;20025;-61
2022/03/22 12:37:08;;;;;;;13.85;5.85;;;;;;;;;;5072479;28;20016;-61
2022/03/22 12:39:36;;;;;;;11.43;6.13;;;;;;;;;;5072253;28;20030;-62
2022/03/22 12:42:02;;;;;;;15.55;6.00;;;;;;;;;;5071722;28;20027;-61
2022/03/22 12:44:28;;;;;;;14.73;6.13;;;;;;;;;;5071684;28;20089;-61
2022/03/22 12:46:55;;;;;;;15.15;6.10;;;;;;;;;;5071880;28;20722;-62
2022/03/22 12:49:23;;;;;;;14.20;5.57;;;;;;;;;;5071302;28;20408;-61
2022/03/22 12:51:49;;;;;;;15.88;6.13;;;;;;;;;;5070918;28;20020;-61
2022/03/22 12:54:18;;;;;;;14.35;6.00;;;;;;;;;;5069542;28;20032;-61
2022/03/22 12:56:48;;;;;;;13.32;5.97;;;;;;;;;;5067430;28;20027;-61
2022/03/22 12:59:18;;;;;;;14.45;5.70;;;;;;;;;;5068919;28;20476;-61
2022/03/22 13:01:44;;;;;;;11.35;5.22;;;;;;;;;;5070787;28;20033;-61
2022/03/22 13:04:10;;;;;;;13.38;5.65;;;;;;;;;;5067420;28;20015;-61
2022/03/22 13:06:37;;;;;;;15.88;6.68;;;;;;;;;;5066604;28;20025;-61
2022/03/22 13:11:48;;;;;;;15.80;5.78;;;;;;;;;;5067056;28;20032;-61
2022/03/22 13:16:59;;;;;;;12.98;5.97;;;;;;;;;;5068939;28;20027;-61
2022/03/22 13:19:32;;;;;;;9.68;5.88;;;;;;;;;;5069895;28;20052;-61
2022/03/22 13:21:59;;;;;;;12.15;5.63;;;;;;;;;;5069748;28;20032;-61
2022/03/22 13:24:26;;;;;;;16.85;5.93;;;;;;;;;;5072371;28;20024;-61
2022/03/22 13:27:02;;;;;;;11.80;6.30;;;;;;;;;;5065107;28;20016;-61
2022/03/22 13:29:35;;;;;;;10.98;5.10;;;;;;;;;;5069095;28;20401;-61
2022/03/22 13:32:02;;;;;;;17.73;7.57;;;;;;;;;;5072272;28;20045;-61
2022/03/22 13:34:29;;;;;;;9.73;5.63;;;;;;;;;;5071168;28;20040;-61
2022/03/22 13:37:10;;;;;;;13.60;5.97;;;;;;;;;;5070280;28;20033;-61
2022/03/22 13:39:37;;;;;;;7.05;4.72;;;;;;;;;;5070379;28;20035;-61
2022/03/22 13:42:11;;;;;;;10.77;4.78;;;;;;;;;;5072036;28;20032;-61
2022/03/22 13:44:51;;;;;;;8.50;4.93;;;;;;;;;;5069805;28;20108;-61
2022/03/22 13:47:37;;;;;;;10.43;4.88;;;;;;;;;;5072551;28;20511;-61
2022/03/22 13:50:14;;;;;;;12.55;4.90;;;;;;;;;;5061237;28;20068;-61
2022/03/22 13:52:41;;;;;;;10.70;4.85;;;;;;;;;;5070392;28;20020;-62
2022/03/22 13:55:13;;;;;;;10.93;4.53;;;;;;;;;;5067257;28;20086;-61
2022/03/22 13:57:41;;;;;;;11.35;5.22;;;;;;;;;;5069886;28;20021;-62
2022/03/22 14:00:08;;;;;;;13.98;5.25;;;;;;;;;;5068112;28;20063;-62
2022/03/22 14:02:34;;;;;;;8.02;4.40;;;;;;;;;;5070593;28;20488;-61
2022/03/22 14:05:00;;;;;;;10.52;4.72;;;;;;;;;;5069655;28;20031;-61
2022/03/22 14:07:26;;;;;;;8.15;4.97;;;;;;;;;;5069495;28;20028;-62
2022/03/22 14:09:53;;;;;;;8.73;4.47;;;;;;;;;;5068771;28;20080;-62
2022/03/22 14:12:20;;;;;;;7.78;3.88;;;;;;;;;;5068382;28;20024;-61
2022/03/22 14:14:46;;;;;;;16.33;4.97;;;;;;;;;;5065739;28;20071;-61
2022/03/22 14:17:13;;;;;;;11.02;4.47;;;;;;;;;;5066814;28;20031;-61
2022/03/22 14:19:39;;;;;;;6.90;4.25;;;;;;;;;;5065760;28;20135;-61
2022/03/22 14:22:05;;;;;;;9.80;4.60;;;;;;;;;;5066561;28;20060;-61
2022/03/22 14:24:32;;;;;;;6.43;3.92;;;;;;;;;;5064954;28;20060;-61
2022/03/22 14:26:58;;;;;;;6.32;3.85;;;;;;;;;;5068527;28;20097;-61
2022/03/22 14:29:24;;;;;;;8.65;3.80;;;;;;;;;;5067649;28;20025;-62
2022/03/22 14:31:52;;;;;;;6.75;3.63;;;;;;;;;;5068948;28;20029;-61
2022/03/22 14:37:04;;;;;;;11.02;4.07;;;;;;;;;;5063228;28;20080;-61
2022/03/22 14:39:31;;;;;;;9.88;3.88;;;;;;;;;;5065348;28;20484;-61
2022/03/22 14:41:57;;;;;;;9.80;4.10;;;;;;;;;;5065169;28;20017;-61
2022/03/22 14:44:23;;;;;;;7.53;4.22;;;;;;;;;;5068717;28;20090;-61
2022/03/22 14:46:52;;;;;;;7.15;4.57;;;;;;;;;;5066917;28;20020;-61
2022/03/22 14:49:19;;;;;;;11.65;4.72;;;;;;;;;;5061498;28;20017;-61
2022/03/22 14:54:35;;;;;;;8.45;3.72;;;;;;;;;;5066570;28;20028;-61
2022/03/22 14:59:46;;;;;;;6.68;3.58;;;;;;;;;;5068114;28;20129;-61
2022/03/22 15:02:14;;;;;;;11.00;4.32;;;;;;;;;;5068528;28;20036;-61
2022/03/22 15:04:43;;;;;;;9.80;4.18;;;;;;;;;;5067969;28;20032;-61
2022/03/22 15:07:10;;;;;;;8.38;4.22;;;;;;;;;;5066760;28;20389;-61
2022/03/22 15:09:39;;;;;;;10.30;4.32;;;;;;;;;;5065966;28;20051;-61
2022/03/22 15:12:05;;;;;;;10.18;3.97;;;;;;;;;;5068824;28;20020;-61
2022/03/22 15:14:31;;;;;;;9.45;4.38;;;;;;;;;;5065037;28;20090;-61
2022/03/22 15:16:57;;;;;;;13.18;4.38;;;;;;;;;;5065760;28;20079;-61